Artvin — 9HA2782 — position and weather

sailwx.info

Track history (hours):
 
Tides and Currents Weather Stations Pressure Air Temp Water Temp Dewpoint Dewpoint Depression Visibility Wind Speed Wind Dir Waves Ship Positions

Artvin

Last reported at 2017-Feb-27 09:31 UTC. Time now 2017-Feb-27 11:34 UTC.
Position N 52°28' E 004°07'.

Date/timePositionNaut miles runAvg speedWind from/ knotsBaromVisibWave heightAir tempDewpointWater temp
2017-Feb-27 09:31N 52°28' E 004°07'0 0.1
2017-Feb-27 08:28N 52°28' E 004°07'0 0.1
2017-Feb-27 07:25N 52°28' E 004°08'0 0.0
2017-Feb-27 06:31N 52°28' E 004°07'0 0.0
2017-Feb-27 05:31N 52°28' E 004°07'0 0.0
2017-Feb-27 04:31N 52°28' E 004°07'0 0.0
2017-Feb-27 03:31N 52°28' E 004°07'0 0.0
2017-Feb-27 02:28N 52°28' E 004°07'0 0.0
2017-Feb-27 01:25N 52°28' E 004°07'0 0.0
2017-Feb-27 00:31N 52°28' E 004°07'0 0.1
2017-Feb-26 23:31N 52°28' E 004°08'0 0.1
2017-Feb-26 22:31N 52°28' E 004°07'0 0.0
2017-Feb-26 21:28N 52°28' E 004°07'0 0.1
2017-Feb-26 20:31N 52°28' E 004°07'0 0.1
2017-Feb-26 19:31N 52°28' E 004°08'0 0.1
2017-Feb-26 18:22N 52°28' E 004°08'0 0.0
2017-Feb-26 17:31N 52°28' E 004°07'0 0.0
2017-Feb-26 16:31N 52°28' E 004°07'0 0.0
2017-Feb-26 15:31N 52°28' E 004°07'0 0.0
2017-Feb-26 14:31N 52°28' E 004°07'0 0.0
2017-Feb-26 13:31N 52°28' E 004°08'0 0.0
2017-Feb-26 12:31N 52°28' E 004°08'0 0.1
2017-Feb-26 11:31N 52°28' E 004°07'0 0.1
2017-Feb-26 10:31N 52°28' E 004°07'0 0.0
2017-Feb-26 09:31N 52°28' E 004°07'0 0.1
2017-Feb-26 08:28N 52°28' E 004°07'0 0.1
2017-Feb-26 07:31N 52°28' E 004°08'0 0.1
2017-Feb-26 06:31N 52°28' E 004°08'0 0.0
2017-Feb-26 05:31N 52°28' E 004°08'0 0.0
2017-Feb-26 04:31N 52°28' E 004°07'0 0.0
2017-Feb-26 03:31N 52°28' E 004°07'0 0.0
2017-Feb-26 02:31N 52°28' E 004°07'0 0.0
2017-Feb-26 01:31N 52°28' E 004°08'0 0.0
2017-Feb-26 00:31N 52°28' E 004°08'2 2.1
2017-Feb-25 23:32N 52°30' E 004°09'8 8.4
2017-Feb-25 22:33N 52°37' E 004°04'180 7.4
2017-Feb-24 22:19N 55°21' E 006°11'7 9.0
2017-Feb-24 21:32N 55°27' E 006°17'193 8.8
2017-Feb-23 23:28N 57°48' E 010°18'8 8.7
2017-Feb-23 22:33N 57°48' E 010°32'9 8.6
2017-Feb-23 21:33N 57°47' E 010°48'10 9.6
2017-Feb-23 20:32N 57°40' E 011°02'10 9.7
2017-Feb-23 19:33N 57°34' E 011°15'9 9.5
2017-Feb-23 18:33N 57°27' E 011°27'9 8.7
2017-Feb-23 17:33N 57°19' E 011°32'9 8.8
2017-Feb-23 16:33N 57°11' E 011°38'115 8.2
2017-Feb-23 02:33N 55°18' E 011°03'8 7.8
2017-Feb-23 01:33N 55°10' E 011°01'10 9.6
2017-Feb-23 00:33N 55°00' E 010°59'9 8.7
2017-Feb-22 23:33N 54°53' E 010°51'8 7.8
2017-Feb-22 22:33N 54°45' E 010°48'7 7.1
2017-Feb-22 21:33N 54°39' E 010°52'8 8.4
2017-Feb-22 20:33N 54°36' E 011°06'8 7.5
2017-Feb-22 19:33N 54°34' E 011°18'8 8.5
2017-Feb-22 18:33N 54°30' E 011°32'8 8.5
2017-Feb-22 17:33N 54°26' E 011°45'7 6.6
2017-Feb-22 16:33N 54°26' E 011°56'7 6.6
2017-Feb-22 15:33N 54°26' E 012°08'6 6.2
2017-Feb-22 14:33N 54°31' E 012°14'7 6.8
2017-Feb-22 13:33N 54°37' E 012°19'7 7.3
2017-Feb-22 12:33N 54°41' E 012°29'53 7.6
2017-Feb-22 05:33N 55°02' E 013°54'8 8.1
2017-Feb-22 04:33N 55°06' E 014°06'9 8.8
2017-Feb-22 03:32N 55°13' E 014°16'9 8.8
2017-Feb-22 02:33N 55°20' E 014°26'8 8.5
2017-Feb-22 01:33N 55°26' E 014°36'9 8.5
2017-Feb-22 00:33N 55°30' E 014°49'9 8.8
2017-Feb-21 23:33N 55°35' E 015°03'9 9.0
2017-Feb-21 22:33N 55°38' E 015°17'9 9.4
2017-Feb-21 21:33N 55°41' E 015°33'10 9.8
2017-Feb-21 20:33N 55°43' E 015°50'10 9.8
2017-Feb-21 19:33N 55°45' E 016°07'10 9.5
2017-Feb-21 18:33N 55°47' E 016°24'9 9.3
2017-Feb-21 17:33N 55°49' E 016°40'9 9.2
2017-Feb-21 16:33N 55°52' E 016°56'  
Track history (hours):
 
Tides and Currents Weather Stations Pressure Air Temp Water Temp Dewpoint Dewpoint Depression Visibility Wind Speed Wind Dir Waves Ship Positions

Artvin

Last reported at 2017-Feb-27 09:31 UTC. Time now 2017-Feb-27 11:34 UTC.
Position N 52°28' E 004°07'.

Date/timePositionNaut miles runAvg speedWind from/ knotsBaromVisibWave heightAir tempDewpointWater temp
2017-Feb-27 09:31N 52°28' E 004°07'0 0.1
2017-Feb-27 08:28N 52°28' E 004°07'0 0.1
2017-Feb-27 07:25N 52°28' E 004°08'0 0.0
2017-Feb-27 06:31N 52°28' E 004°07'0 0.0
2017-Feb-27 05:31N 52°28' E 004°07'0 0.0
2017-Feb-27 04:31N 52°28' E 004°07'0 0.0
2017-Feb-27 03:31N 52°28' E 004°07'0 0.0
2017-Feb-27 02:28N 52°28' E 004°07'0 0.0
2017-Feb-27 01:25N 52°28' E 004°07'0 0.0
2017-Feb-27 00:31N 52°28' E 004°07'0 0.1
2017-Feb-26 23:31N 52°28' E 004°08'0 0.1
2017-Feb-26 22:31N 52°28' E 004°07'0 0.0
2017-Feb-26 21:28N 52°28' E 004°07'0 0.1
2017-Feb-26 20:31N 52°28' E 004°07'0 0.1
2017-Feb-26 19:31N 52°28' E 004°08'0 0.1
2017-Feb-26 18:22N 52°28' E 004°08'0 0.0
2017-Feb-26 17:31N 52°28' E 004°07'0 0.0
2017-Feb-26 16:31N 52°28' E 004°07'0 0.0
2017-Feb-26 15:31N 52°28' E 004°07'0 0.0
2017-Feb-26 14:31N 52°28' E 004°07'0 0.0
2017-Feb-26 13:31N 52°28' E 004°08'0 0.0
2017-Feb-26 12:31N 52°28' E 004°08'0 0.1
2017-Feb-26 11:31N 52°28' E 004°07'0 0.1
2017-Feb-26 10:31N 52°28' E 004°07'0 0.0
2017-Feb-26 09:31N 52°28' E 004°07'0 0.1
2017-Feb-26 08:28N 52°28' E 004°07'0 0.1
2017-Feb-26 07:31N 52°28' E 004°08'0 0.1
2017-Feb-26 06:31N 52°28' E 004°08'0 0.0
2017-Feb-26 05:31N 52°28' E 004°08'0 0.0
2017-Feb-26 04:31N 52°28' E 004°07'0 0.0
2017-Feb-26 03:31N 52°28' E 004°07'0 0.0
2017-Feb-26 02:31N 52°28' E 004°07'0 0.0
2017-Feb-26 01:31N 52°28' E 004°08'0 0.0
2017-Feb-26 00:31N 52°28' E 004°08'2 2.1
2017-Feb-25 23:32N 52°30' E 004°09'8 8.4
2017-Feb-25 22:33N 52°37' E 004°04'180 7.4
2017-Feb-24 22:19N 55°21' E 006°11'7 9.0
2017-Feb-24 21:32N 55°27' E 006°17'193 8.8
2017-Feb-23 23:28N 57°48' E 010°18'8 8.7
2017-Feb-23 22:33N 57°48' E 010°32'9 8.6
2017-Feb-23 21:33N 57°47' E 010°48'10 9.6
2017-Feb-23 20:32N 57°40' E 011°02'10 9.7
2017-Feb-23 19:33N 57°34' E 011°15'9 9.5
2017-Feb-23 18:33N 57°27' E 011°27'9 8.7
2017-Feb-23 17:33N 57°19' E 011°32'9 8.8
2017-Feb-23 16:33N 57°11' E 011°38'115 8.2
2017-Feb-23 02:33N 55°18' E 011°03'8 7.8
2017-Feb-23 01:33N 55°10' E 011°01'10 9.6
2017-Feb-23 00:33N 55°00' E 010°59'9 8.7
2017-Feb-22 23:33N 54°53' E 010°51'8 7.8
2017-Feb-22 22:33N 54°45' E 010°48'7 7.1
2017-Feb-22 21:33N 54°39' E 010°52'8 8.4
2017-Feb-22 20:33N 54°36' E 011°06'8 7.5
2017-Feb-22 19:33N 54°34' E 011°18'8 8.5
2017-Feb-22 18:33N 54°30' E 011°32'8 8.5
2017-Feb-22 17:33N 54°26' E 011°45'7 6.6
2017-Feb-22 16:33N 54°26' E 011°56'7 6.6
2017-Feb-22 15:33N 54°26' E 012°08'6 6.2
2017-Feb-22 14:33N 54°31' E 012°14'7 6.8
2017-Feb-22 13:33N 54°37' E 012°19'7 7.3
2017-Feb-22 12:33N 54°41' E 012°29'53 7.6
2017-Feb-22 05:33N 55°02' E 013°54'8 8.1
2017-Feb-22 04:33N 55°06' E 014°06'9 8.8
2017-Feb-22 03:32N 55°13' E 014°16'9 8.8
2017-Feb-22 02:33N 55°20' E 014°26'8 8.5
2017-Feb-22 01:33N 55°26' E 014°36'9 8.5
2017-Feb-22 00:33N 55°30' E 014°49'9 8.8
2017-Feb-21 23:33N 55°35' E 015°03'9 9.0
2017-Feb-21 22:33N 55°38' E 015°17'9 9.4
2017-Feb-21 21:33N 55°41' E 015°33'10 9.8
2017-Feb-21 20:33N 55°43' E 015°50'10 9.8
2017-Feb-21 19:33N 55°45' E 016°07'10 9.5
2017-Feb-21 18:33N 55°47' E 016°24'9 9.3
2017-Feb-21 17:33N 55°49' E 016°40'9 9.2
2017-Feb-21 16:33N 55°52' E 016°56'  

Dump ship's entire track history